Time;durP1;ratioP1;P1;durP2;ratioP2;P2;SDS_P1;SDS_P2;PMS_P1;PMS_P2;Temp;Humidity;BMP_temperature;BMP_pressure;BME280_temperature;BME280_humidity;BME280_pressure;Samples;Min_cycle;Max_cycle;Signal;HPM_P1;HPM_P2
2022/11/19 00:01:27;;;;;;;19.70;12.80;;;;;;;4.21;93.20;100717.09;5028660;28;20052;-76
2022/11/19 00:03:55;;;;;;;21.92;12.77;;;;;;;4.23;93.49;100714.47;5027568;28;20034;-76
2022/11/19 00:06:26;;;;;;;20.08;13.65;;;;;;;4.24;93.07;100716.22;5041893;28;20045;-76
2022/11/19 00:08:54;;;;;;;24.77;15.88;;;;;;;4.20;92.98;100726.66;5027968;28;20046;-76
2022/11/19 00:14:14;;;;;;;25.02;15.30;;;;;;;4.14;92.26;100731.94;5026340;28;20124;-76
2022/11/19 00:16:44;;;;;;;23.80;15.93;;;;;;;4.13;91.97;100719.75;5029018;28;20054;-76
2022/11/19 00:19:12;;;;;;;23.40;15.25;;;;;;;4.12;92.01;100740.66;5027022;28;20042;-76
2022/11/19 00:21:39;;;;;;;21.70;14.18;;;;;;;4.10;92.39;100730.19;5028820;28;20085;-76
2022/11/19 00:24:07;;;;;;;21.08;13.52;;;;;;;4.10;92.12;100740.63;5028768;28;20053;-74
2022/11/19 00:26:35;;;;;;;20.38;13.13;;;;;;;4.07;92.01;100743.25;5028629;28;20054;-73
2022/11/19 00:29:03;;;;;;;23.35;14.68;;;;;;;4.06;92.67;100749.38;5007445;28;20041;-73
2022/11/19 00:31:30;;;;;;;20.08;13.65;;;;;;;4.06;93.11;100744.16;5029112;28;20034;-73
2022/11/19 00:33:57;;;;;;;19.48;12.82;;;;;;;4.09;93.51;100748.47;5027650;28;20538;-73
2022/11/19 00:36:24;;;;;;;20.10;11.55;;;;;;;4.11;92.63;100750.19;5029196;28;20057;-73
2022/11/19 00:38:51;;;;;;;15.57;10.63;;;;;;;4.12;92.51;100753.69;5025414;28;20042;-74
2022/11/19 00:41:18;;;;;;;18.58;10.45;;;;;;;4.12;92.41;100748.47;5014582;28;20046;-74
2022/11/19 00:43:45;;;;;;;15.05;10.68;;;;;;;4.07;91.93;100753.69;5022840;28;20038;-75
2022/11/19 00:46:29;;;;;;;15.68;10.00;;;;;;;4.07;91.61;100765.88;5029564;28;20052;-74
2022/11/19 00:48:58;;;;;;;17.60;11.20;;;;;;;4.03;90.84;100746.78;5027540;28;20054;-74
2022/11/19 00:51:29;;;;;;;16.70;11.23;;;;;;;3.96;90.95;100761.56;5028797;28;20045;-75
2022/11/19 00:53:57;;;;;;;15.93;10.65;;;;;;;3.92;90.60;100759.84;5020543;28;20833;-75
2022/11/19 00:56:26;;;;;;;19.25;10.45;;;;;;;3.87;90.84;100753.78;5028399;28;20049;-75
2022/11/19 00:58:54;;;;;;;17.17;10.82;;;;;;;3.83;91.15;100759.88;5026852;28;20054;-75
2022/11/19 01:01:24;;;;;;;17.05;10.98;;;;;;;3.84;91.06;100756.41;5029974;28;20046;-75
2022/11/19 01:03:52;;;;;;;16.70;10.05;;;;;;;3.84;90.53;100761.63;5026633;28;20118;-75
2022/11/19 01:06:23;;;;;;;13.75;9.82;;;;;;;3.85;89.81;100765.97;5029345;28;20045;-75
2022/11/19 01:08:52;;;;;;;16.15;10.05;;;;;;;3.75;89.70;100765.16;5026867;28;20042;-76
2022/11/19 01:11:26;;;;;;;16.27;9.95;;;;;;;3.69;90.00;100770.34;5024380;28;20054;-74
2022/11/19 01:13:55;;;;;;;17.70;10.93;;;;;;;3.65;90.44;100768.66;5030196;28;20132;-74
2022/11/19 01:16:32;;;;;;;16.73;10.68;;;;;;;3.61;90.79;100774.72;5013940;28;20113;-74
2022/11/19 01:19:02;;;;;;;16.02;10.82;;;;;;;3.61;91.21;100785.16;5028366;28;20498;-75
2022/11/19 01:21:33;;;;;;;18.75;10.77;;;;;;;3.63;90.70;100779.06;5031685;28;20045;-75
2022/11/19 01:24:02;;;;;;;15.23;10.43;;;;;;;3.57;90.55;100790.38;5029880;28;20053;-74
2022/11/19 01:26:30;;;;;;;15.48;10.05;;;;;;;3.53;90.84;100790.38;5029507;28;20042;-74
2022/11/19 01:28:58;;;;;;;15.25;9.75;;;;;;;3.53;90.72;100804.31;5030591;28;20041;-75
2022/11/19 01:31:29;;;;;;;16.35;10.60;;;;;;;3.48;91.05;100799.97;5032248;28;20045;-75
2022/11/19 01:33:57;;;;;;;15.38;10.30;;;;;;;3.49;91.47;100801.72;5029715;28;20050;-75
2022/11/19 01:36:27;;;;;;;15.20;9.98;;;;;;;3.50;91.77;100809.50;5031964;28;20053;-75
2022/11/19 01:38:56;;;;;;;13.80;10.15;;;;;;;3.50;90.49;100808.66;5026930;28;20045;-75
2022/11/19 01:41:27;;;;;;;15.05;10.02;;;;;;;3.51;90.57;100810.41;5034035;28;20517;-75
2022/11/19 01:44:02;;;;;;;14.65;9.80;;;;;;;3.46;90.11;100804.31;5041271;28;20037;-75
2022/11/19 01:46:38;;;;;;;16.17;9.85;;;;;;;3.42;90.03;100806.06;5036369;28;20263;-76
2022/11/19 01:49:19;;;;;;;15.05;10.63;;;;;;;3.33;90.27;100799.09;5030689;28;20148;-75
2022/11/19 01:52:01;;;;;;;14.95;10.40;;;;;;;3.33;90.39;100806.94;5034399;28;20052;-75
2022/11/19 01:54:53;;;;;;;15.68;10.70;;;;;;;3.32;89.85;100805.19;5028575;28;20097;-75
2022/11/19 01:57:21;;;;;;;14.57;10.23;;;;;;;3.30;89.79;100811.28;5026503;28;20049;-75
2022/11/19 01:59:51;;;;;;;16.60;10.82;;;;;;;3.30;89.66;100816.50;5033605;28;20720;-76
2022/11/19 02:02:21;;;;;;;15.45;10.68;;;;;;;3.23;89.29;100813.00;5041875;28;20045;-76
2022/11/19 02:04:50;;;;;;;14.95;10.75;;;;;;;3.21;89.62;100826.06;5036162;28;20042;-76
2022/11/19 02:07:25;;;;;;;14.00;10.27;;;;;;;3.15;90.21;100823.47;5042733;28;20041;-76
2022/11/19 02:09:52;;;;;;;;;;;;;;;3.16;90.27;100825.16;5032921;28;20046;-76
2022/11/19 02:12:53;;;;;;;16.58;11.23;;;;;;;3.18;89.43;100826.03;5029007;28;19925;-76
2022/11/19 02:15:26;;;;;;;18.10;12.43;;;;;;;3.17;89.19;100823.44;5027752;28;20454;-76
2022/11/19 02:18:10;;;;;;;19.55;12.15;;;;;;;3.17;88.80;100834.72;5033173;28;20467;-77
2022/11/19 02:21:15;;;;;;;19.42;12.73;;;;;;;3.10;88.76;100838.19;5026531;28;20429;-77
2022/11/19 02:24:15;;;;;;;20.65;12.52;;;;;;;3.06;88.73;100836.44;4958577;28;20157;-77
2022/11/19 02:27:24;;;;;;;21.45;12.48;;;;;;;3.07;89.10;100835.59;5022583;28;20062;-76
2022/11/19 02:30:04;;;;;;;18.42;12.43;;;;;;;3.08;88.64;100834.72;5029753;28;20089;-77
2022/11/19 02:32:58;;;;;;;21.20;13.50;;;;;;;3.03;89.15;100831.25;5029607;28;20046;-76
2022/11/19 02:35:59;;;;;;;20.17;13.23;;;;;;;3.05;89.20;100840.81;5029180;28;20576;-76
2022/11/19 02:39:18;;;;;;;23.95;14.05;;;;;;;2.99;88.62;100833.00;5025676;28;20094;-74
2022/11/19 02:42:27;;;;;;;21.65;13.20;;;;;;;2.99;88.72;100846.03;4966485;28;20118;-74
2022/11/19 02:45:11;;;;;;;22.02;13.77;;;;;;;2.97;88.11;100836.44;4968312;28;20114;-74
2022/11/19 02:47:50;;;;;;;21.50;14.10;;;;;;;2.94;87.65;100843.41;5026054;28;20085;-74
2022/11/19 02:50:25;;;;;;;21.00;13.57;;;;;;;2.90;87.95;100843.41;5025342;28;20034;-74
2022/11/19 02:52:53;;;;;;;26.42;15.05;;;;;;;2.88;88.05;100843.38;5022131;28;20045;-74
2022/11/19 02:55:22;;;;;;;25.10;15.02;;;;;;;2.87;88.23;100846.84;5029892;28;20038;-74
2022/11/19 02:58:02;;;;;;;24.27;15.02;;;;;;;2.88;88.30;100843.38;5028613;28;20196;-74
2022/11/19 03:06:23;;;;;;;23.45;14.40;;;;;;;2.88;87.69;100842.53;5023112;28;20384;-76
2022/11/19 03:08:51;;;;;;;25.25;15.05;;;;;;;2.83;87.79;100847.72;5027840;28;20038;-76
2022/11/19 03:11:30;;;;;;;21.45;14.52;;;;;;;2.84;87.33;100835.56;5022710;28;20046;-75
2022/11/19 03:17:15;;;;;;;19.92;14.05;;;;;;;2.81;87.23;100844.25;5028331;28;20073;-76
2022/11/19 03:19:52;;;;;;;23.67;14.82;;;;;;;2.80;86.72;100840.75;5021693;28;20487;-76
2022/11/19 03:22:33;;;;;;;23.48;13.85;;;;;;;2.83;86.18;100836.44;5028912;28;20099;-70
2022/11/19 03:25:27;;;;;;;22.63;14.68;;;;;;;2.75;86.38;100845.09;5027590;28;20049;-71
2022/11/19 03:28:02;;;;;;;23.10;14.97;;;;;;;2.75;86.39;100850.31;5027675;28;20034;-70
2022/11/19 03:30:30;;;;;;;24.10;15.43;;;;;;;2.73;86.76;100852.03;5021874;28;20045;-70
2022/11/19 03:33:13;;;;;;;23.35;16.00;;;;;;;2.74;86.29;100850.31;5029062;28;20037;-70
2022/11/19 03:35:48;;;;;;;23.50;15.70;;;;;;;2.73;86.27;100852.03;5021626;28;20105;-70
2022/11/19 03:38:25;;;;;;;23.98;15.48;;;;;;;2.70;86.19;100854.63;5029283;28;20125;-70
2022/11/19 03:40:55;;;;;;;23.88;15.63;;;;;;;2.70;86.21;100854.63;5023898;28;20030;-70
2022/11/19 03:43:28;;;;;;;25.13;16.17;;;;;;;2.68;86.31;100858.09;5040872;28;20042;-70
2022/11/19 03:46:00;;;;;;;26.40;16.23;;;;;;;2.69;85.75;100862.44;5030718;28;20049;-72
2022/11/19 03:48:29;;;;;;;23.63;15.35;;;;;;;2.68;86.07;100863.31;5033758;28;20050;-73
2022/11/19 03:51:06;;;;;;;23.30;15.63;;;;;;;2.68;86.35;100861.59;5032608;28;20100;-73
2022/11/19 03:53:34;;;;;;;24.10;16.38;;;;;;;2.68;86.68;100863.31;5038558;28;20041;-73
2022/11/19 03:56:09;;;;;;;26.50;17.33;;;;;;;2.69;86.60;100860.72;5043642;28;20038;-73
2022/11/19 03:58:43;;;;;;;23.75;16.70;;;;;;;2.70;86.22;100870.25;5029953;28;20053;-72
2022/11/19 04:01:11;;;;;;;26.63;17.73;;;;;;;2.66;86.16;100873.72;5030251;28;20042;-71
2022/11/19 04:03:38;;;;;;;23.50;16.35;;;;;;;2.65;86.38;100869.38;5033195;28;20045;-71
2022/11/19 04:06:05;;;;;;;26.83;16.65;;;;;;;2.63;85.33;100871.09;5029541;28;20034;-71
2022/11/19 04:08:32;;;;;;;28.02;18.10;;;;;;;2.58;84.56;100863.28;5030092;28;20507;-76
2022/11/19 04:11:00;;;;;;;29.85;17.30;;;;;;;2.55;84.45;100871.06;5027541;28;20078;-76
2022/11/19 04:13:25;;;;;;;27.02;17.48;;;;;;;2.48;84.50;100874.53;5026717;28;20045;-76
2022/11/19 04:15:52;;;;;;;26.45;18.05;;;;;;;2.44;85.05;100880.59;5026415;28;20073;-76
2022/11/19 04:18:20;;;;;;;25.13;16.52;;;;;;;2.45;84.65;100874.50;5027793;28;20810;-75
2022/11/19 04:20:47;;;;;;;25.30;17.33;;;;;;;2.41;85.11;100884.03;5029165;28;20668;-76
2022/11/19 04:23:14;;;;;;;26.48;17.40;;;;;;;2.41;85.48;100883.19;5027615;28;20041;-75
2022/11/19 04:25:46;;;;;;;25.98;17.63;;;;;;;2.45;84.99;100879.72;5029964;28;20195;-76
2022/11/19 04:28:13;;;;;;;25.70;17.73;;;;;;;2.43;84.64;100890.13;5010376;28;20046;-77
2022/11/19 04:30:41;;;;;;;25.70;17.27;;;;;;;2.39;85.36;100883.16;5029025;28;20042;-76
2022/11/19 04:33:08;;;;;;;31.35;18.60;;;;;;;2.39;85.61;100895.31;5026821;28;20527;-77
2022/11/19 04:35:35;;;;;;;26.23;17.58;;;;;;;2.40;85.18;100889.25;5023247;28;20050;-77
2022/11/19 04:38:02;;;;;;;27.65;18.25;;;;;;;2.41;85.12;100893.59;5024559;28;20077;-76
2022/11/19 04:40:34;;;;;;;29.52;18.50;;;;;;;2.40;84.69;100890.09;5027056;28;20038;-76
2022/11/19 04:43:01;;;;;;;27.75;17.73;;;;;;;2.36;84.83;100900.50;5027907;28;20050;-76
2022/11/19 04:45:28;;;;;;;29.75;19.52;;;;;;;2.30;85.47;100904.81;5028276;28;20033;-76
2022/11/19 04:47:55;;;;;;;28.75;19.55;;;;;;;2.32;85.65;100899.59;5029403;28;20069;-76
2022/11/19 04:50:22;;;;;;;27.65;18.05;;;;;;;2.32;85.67;100897.91;5032334;28;20034;-76
2022/11/19 04:52:49;;;;;;;30.60;19.30;;;;;;;2.31;85.15;100897.88;5031668;28;20068;-76
2022/11/19 04:55:16;;;;;;;29.85;18.85;;;;;;;2.30;85.53;100903.94;5031834;28;20042;-76
2022/11/19 04:57:43;;;;;;;29.10;18.95;;;;;;;2.30;84.78;100886.59;5030830;28;20503;-76
2022/11/19 05:00:11;;;;;;;33.17;20.67;;;;;;;2.29;84.45;100904.81;5026700;28;20491;-76
2022/11/19 05:02:38;;;;;;;30.15;19.92;;;;;;;2.23;84.41;100902.16;5032306;28;20098;-76
2022/11/19 05:05:06;;;;;;;30.02;19.63;;;;;;;2.22;84.42;100909.13;5032681;28;20050;-75
2022/11/19 05:07:33;;;;;;;27.73;18.58;;;;;;;2.15;84.58;100905.59;5027250;28;20046;-75
2022/11/19 05:10:00;;;;;;;29.83;20.00;;;;;;;2.14;84.19;100909.06;5031197;28;20042;-74
2022/11/19 05:12:27;;;;;;;33.13;21.40;;;;;;;2.09;84.08;100915.09;5026654;28;20519;-75
2022/11/19 05:14:54;;;;;;;31.42;20.17;;;;;;;2.07;84.29;100914.22;5009662;28;20393;-76
2022/11/19 05:17:21;;;;;;;30.63;19.40;;;;;;;2.04;84.50;100917.69;5040496;28;20034;-76
2022/11/19 05:19:53;;;;;;;30.30;20.45;;;;;;;2.00;84.55;100922.00;5031841;28;20073;-75
2022/11/19 05:22:21;;;;;;;31.45;20.98;;;;;;;1.99;84.51;100924.56;5031892;28;20042;-75
2022/11/19 05:24:48;;;;;;;32.47;20.73;;;;;;;1.96;85.08;100920.22;5036803;28;20038;-75
2022/11/19 05:27:18;;;;;;;33.25;21.15;;;;;;;1.96;84.68;100916.75;5027468;28;20058;-75
2022/11/19 05:29:47;;;;;;;34.90;21.70;;;;;;;1.92;85.11;100933.19;5035605;28;20050;-75
2022/11/19 05:32:14;;;;;;;32.63;20.45;;;;;;;1.96;nan;100932.38;5031205;28;20049;-75
2022/11/19 05:34:41;;;;;;;32.15;21.40;;;;;;;1.94;84.75;100926.28;5031940;28;20049;-75
2022/11/19 05:37:08;;;;;;;30.73;20.85;;;;;;;1.93;85.13;100928.03;5030841;28;20045;-75
2022/11/19 05:39:35;;;;;;;31.73;20.35;;;;;;;1.93;85.25;100928.03;5031101;28;20053;-75
2022/11/19 05:42:02;;;;;;;32.65;20.65;;;;;;;1.95;85.27;100946.22;5030341;28;20073;-73
2022/11/19 05:44:31;;;;;;;33.30;20.70;;;;;;;1.96;85.26;100945.38;5040732;28;20118;-75
2022/11/19 05:46:58;;;;;;;32.58;20.10;;;;;;;1.99;84.14;100954.06;5039315;28;20089;-75
2022/11/19 05:49:26;;;;;;;31.73;20.42;;;;;;;1.98;83.61;100954.91;5039672;28;20068;-74
2022/11/19 05:51:53;;;;;;;31.27;21.13;;;;;;;1.93;84.17;100960.94;5025087;28;20045;-74
2022/11/19 05:54:20;;;;;;;31.80;21.15;;;;;;;1.93;83.72;100960.94;5031700;28;20042;-76
2022/11/19 05:56:49;;;;;;;33.70;21.65;;;;;;;1.90;83.71;100958.31;5031222;28;20049;-75
2022/11/19 05:59:16;;;;;;;32.25;20.33;;;;;;;1.88;84.15;100958.31;5035007;28;20439;-74
2022/11/19 06:01:44;;;;;;;32.53;20.30;;;;;;;1.91;83.96;100967.84;5036761;28;20177;-75
2022/11/19 06:04:11;;;;;;;33.13;21.92;;;;;;;1.93;83.44;100964.44;5035163;28;20458;-75
2022/11/19 06:06:38;;;;;;;36.13;20.75;;;;;;;1.93;83.66;100972.22;5032114;28;20508;-74
2022/11/19 06:09:05;;;;;;;32.03;20.27;;;;;;;1.92;83.02;100970.47;5035185;28;20042;-76
2022/11/19 06:11:49;;;;;;;31.75;20.23;;;;;;;1.90;83.04;100982.59;5031410;28;20053;-77
2022/11/19 06:14:23;;;;;;;34.57;21.37;;;;;;;1.90;83.05;100989.50;5020789;28;20164;-77
2022/11/19 06:16:54;;;;;;;32.25;20.95;;;;;;;1.89;83.01;100988.66;5027333;28;20092;-76
2022/11/19 06:19:22;;;;;;;34.35;21.23;;;;;;;1.89;82.99;100993.84;5030164;28;20542;-77
2022/11/19 06:21:50;;;;;;;33.45;20.77;;;;;;;1.88;83.51;100992.09;5031902;28;20045;-73
2022/11/19 06:24:19;;;;;;;32.65;20.60;;;;;;;1.92;83.55;100999.09;5026296;28;22339;-74
2022/11/19 06:26:46;;;;;;;33.72;21.02;;;;;;;1.93;83.33;100990.44;5022055;28;20505;-74
2022/11/19 06:29:16;;;;;;;33.92;20.20;;;;;;;1.96;82.85;101003.44;5031371;28;20045;-71
2022/11/19 06:31:45;;;;;;;31.77;20.05;;;;;;;1.97;82.54;101009.53;5033803;28;20038;-72
2022/11/19 06:34:14;;;;;;;33.40;21.92;;;;;;;1.96;82.33;101010.38;5030012;28;20046;-76
2022/11/19 06:36:41;;;;;;;32.63;20.88;;;;;;;1.92;82.74;101006.00;5029964;28;20088;-76
2022/11/19 06:39:16;;;;;;;;;;;;;;;1.89;82.84;101016.38;5031973;28;20577;-76
2022/11/19 06:41:43;;;;;;;32.97;20.80;;;;;;;1.93;82.72;101031.16;5031232;28;20013;-74
2022/11/19 06:44:10;;;;;;;35.92;20.60;;;;;;;1.93;82.49;101025.94;5029206;28;20046;-74
2022/11/19 06:46:37;;;;;;;32.55;20.60;;;;;;;1.94;81.98;101031.16;5025106;28;20042;-77
2022/11/19 06:49:05;;;;;;;32.80;20.77;;;;;;;1.93;81.41;101038.94;5030910;28;20085;-77
2022/11/19 06:51:32;;;;;;;34.65;21.23;;;;;;;1.90;81.55;101042.41;5027147;28;20091;-77
2022/11/19 06:54:00;;;;;;;33.05;20.10;;;;;;;1.91;81.78;101043.25;5030412;28;20046;-76
2022/11/19 06:56:26;;;;;;;32.83;20.48;;;;;;;1.90;81.44;101047.59;5029165;28;20049;-77
2022/11/19 06:58:57;;;;;;;31.70;20.02;;;;;;;1.91;80.74;101051.06;5029396;28;20041;-77
2022/11/19 07:01:24;;;;;;;33.72;21.30;;;;;;;1.84;81.56;101053.63;5031200;28;20478;-76
2022/11/19 07:03:52;;;;;;;32.20;20.63;;;;;;;1.86;81.52;101051.00;5030155;28;20042;-72
2022/11/19 07:06:20;;;;;;;35.13;21.20;;;;;;;1.89;80.36;101052.75;5023220;28;20042;-76
2022/11/19 07:08:47;;;;;;;35.88;21.30;;;;;;;1.83;80.65;101051.88;5025485;28;20065;-75
2022/11/19 07:11:27;;;;;;;30.63;19.05;;;;;;;1.84;80.59;101050.13;5031183;28;20045;-75
2022/11/19 07:13:56;;;;;;;32.97;20.10;;;;;;;1.83;80.91;101059.66;5026648;28;20089;-75
2022/11/19 07:16:33;;;;;;;34.13;20.10;;;;;;;1.84;80.98;101061.41;5031891;28;20042;-75
2022/11/19 07:19:04;;;;;;;36.35;21.88;;;;;;;1.81;80.65;101048.38;5030157;28;20530;-75
2022/11/19 07:21:32;;;;;;;34.28;21.38;;;;;;;1.82;81.19;101051.88;5029433;28;20972;-74
2022/11/19 07:24:03;;;;;;;35.22;21.35;;;;;;;1.82;81.51;101060.53;5028255;28;20049;-73
2022/11/19 07:26:32;;;;;;;33.53;20.73;;;;;;;1.91;82.31;101056.25;5024294;28;20042;-71
2022/11/19 07:29:07;;;;;;;36.35;21.30;;;;;;;2.06;82.49;101065.91;5031905;28;20443;-71
2022/11/19 07:31:34;;;;;;;34.60;20.52;;;;;;;2.16;82.74;101059.94;5025776;28;20034;-71
2022/11/19 07:34:09;;;;;;;32.22;20.48;;;;;;;2.29;81.21;101055.72;5028876;28;20065;-71
2022/11/19 07:36:37;;;;;;;30.13;20.30;;;;;;;2.31;79.41;101065.28;5028094;28;20063;-71
2022/11/19 07:39:04;;;;;;;32.10;19.88;;;;;;;2.25;80.14;101074.75;5028039;28;20490;-70
2022/11/19 07:44:18;;;;;;;30.13;18.73;;;;;;;2.34;79.22;101069.63;5029260;28;20572;-71
2022/11/19 07:46:49;;;;;;;30.90;19.35;;;;;;;2.26;78.77;101081.72;5026020;28;20046;-71
2022/11/19 07:49:17;;;;;;;29.80;19.27;;;;;;;2.22;79.49;101078.22;5029538;28;20057;-71
2022/11/19 07:51:45;;;;;;;31.30;19.67;;;;;;;2.26;79.47;101077.34;5030114;28;20088;-71
2022/11/19 07:54:13;;;;;;;31.85;19.65;;;;;;;2.29;78.92;101076.53;5037623;28;20058;-71
2022/11/19 07:56:41;;;;;;;31.73;19.88;;;;;;;2.37;79.05;101082.66;5026343;28;20045;-71
2022/11/19 07:59:09;;;;;;;31.15;18.70;;;;;;;2.35;78.08;101076.56;5027539;28;20542;-71
2022/11/19 08:01:37;;;;;;;29.73;18.67;;;;;;;2.34;78.55;101080.03;5030079;28;20830;-71
2022/11/19 08:04:04;;;;;;;30.90;18.45;;;;;;;2.39;78.56;101085.25;5030085;28;20500;-72
2022/11/19 08:06:35;;;;;;;30.75;18.27;;;;;;;2.41;77.94;101081.81;5016663;28;20152;-71
2022/11/19 08:09:04;;;;;;;29.98;19.10;;;;;;;2.41;77.82;101084.41;5030180;28;20557;-71
2022/11/19 08:11:31;;;;;;;28.92;17.98;;;;;;;2.39;76.92;101082.66;5029043;28;20530;-71
2022/11/19 08:14:00;;;;;;;30.77;18.85;;;;;;;2.30;77.27;101092.16;5027574;28;20046;-71
2022/11/19 08:19:16;;;;;;;30.55;18.38;;;;;;;2.37;77.09;101100.88;5024409;28;20057;-71
2022/11/19 08:21:46;;;;;;;29.35;18.00;;;;;;;2.38;76.79;101102.63;5036910;28;20973;-71
2022/11/19 08:24:16;;;;;;;30.10;17.95;;;;;;;2.35;76.34;101114.72;5031511;28;20042;-71
2022/11/19 08:26:45;;;;;;;27.25;17.30;;;;;;;2.28;76.91;101106.00;5028493;28;20081;-71
2022/11/19 08:29:15;;;;;;;29.90;17.60;;;;;;;2.28;76.50;101106.00;5019094;28;20038;-72
2022/11/19 08:31:46;;;;;;;29.60;17.13;;;;;;;2.27;75.96;101112.06;5039930;28;20455;-71
2022/11/19 08:34:15;;;;;;;27.67;17.75;;;;;;;2.28;75.95;101114.69;5034425;28;20042;-71
2022/11/19 08:36:43;;;;;;;25.08;16.30;;;;;;;2.28;76.02;101113.81;5033837;28;20057;-71
2022/11/19 08:39:11;;;;;;;26.20;16.52;;;;;;;2.31;76.19;101119.03;5031478;28;20053;-71
2022/11/19 08:44:24;;;;;;;23.67;15.43;;;;;;;2.35;75.55;101118.19;5038931;28;20526;-71
2022/11/19 08:46:51;;;;;;;27.23;17.05;;;;;;;2.32;75.60;101129.47;5026535;28;20411;-71
2022/11/19 08:49:43;;;;;;;25.60;16.27;;;;;;;2.25;75.28;101135.44;5030116;28;20508;-71
2022/11/19 08:52:15;;;;;;;27.83;18.27;;;;;;;2.27;75.69;101136.34;5031168;28;20034;-70
2022/11/19 08:54:42;;;;;;;26.13;16.63;;;;;;;2.28;75.62;101139.84;5028031;28;20042;-71
2022/11/19 08:57:10;;;;;;;26.17;16.70;;;;;;;2.31;74.59;101138.13;5027555;28;20543;-71
2022/11/19 08:59:38;;;;;;;27.10;17.08;;;;;;;2.25;74.41;101142.41;5030647;28;20101;-72
2022/11/19 09:02:05;;;;;;;25.95;16.65;;;;;;;2.12;75.33;101139.69;5032641;28;20035;-71
2022/11/19 09:04:32;;;;;;;27.63;16.83;;;;;;;2.09;74.97;101146.59;5029342;28;20046;-72
2022/11/19 09:07:06;;;;;;;26.80;16.98;;;;;;;2.00;75.94;101153.44;5040799;28;20034;-71
2022/11/19 09:09:33;;;;;;;26.42;16.73;;;;;;;2.01;75.67;101151.69;5037169;28;20148;-72
2022/11/19 09:12:02;;;;;;;25.80;16.77;;;;;;;2.04;75.43;101146.53;5037957;28;20057;-72
2022/11/19 09:14:29;;;;;;;26.95;16.88;;;;;;;1.96;75.36;101150.81;5027834;28;20042;-72
2022/11/19 09:17:00;;;;;;;26.13;16.67;;;;;;;1.90;76.52;101148.13;5042953;28;20042;-72
2022/11/19 09:19:27;;;;;;;26.52;16.75;;;;;;;1.89;75.71;101144.66;5020687;28;20975;-72
2022/11/19 09:21:55;;;;;;;27.10;16.58;;;;;;;1.80;75.71;101158.44;5033599;28;20041;-72
2022/11/19 09:24:22;;;;;;;25.80;16.05;;;;;;;1.74;76.68;101166.16;5028834;28;20062;-72
2022/11/19 09:26:49;;;;;;;24.48;16.08;;;;;;;1.71;76.06;101166.13;5029869;28;20045;-72
2022/11/19 09:29:19;;;;;;;24.48;16.35;;;;;;;1.63;75.50;101163.44;5029071;28;20141;-71
2022/11/19 09:31:46;;;;;;;26.75;16.67;;;;;;;1.55;76.23;101170.25;5030066;28;20042;-72
2022/11/19 09:34:13;;;;;;;23.63;15.52;;;;;;;1.54;76.09;101174.59;5028489;28;20069;-72
2022/11/19 09:36:40;;;;;;;24.55;15.43;;;;;;;1.55;75.65;101181.56;5030134;28;20045;-72
2022/11/19 09:39:09;;;;;;;25.25;15.93;;;;;;;1.48;75.94;101184.91;5029891;28;20049;-71
2022/11/19 09:41:48;;;;;;;20.98;14.63;;;;;;;1.35;75.82;101196.00;5030851;28;20038;-72
2022/11/19 09:44:51;;;;;;;23.88;15.27;;;;;;;1.31;75.91;101191.63;5033658;28;20042;-72
2022/11/19 09:48:01;;;;;;;21.80;15.93;;;;;;;1.28;76.05;101194.16;5031401;28;20038;-71
2022/11/19 09:50:44;;;;;;;23.90;15.82;;;;;;;1.21;76.68;101204.47;5025644;28;20057;-71
2022/11/19 09:53:22;;;;;;;23.17;15.75;;;;;;;1.28;77.13;101202.84;5029417;28;20063;-71
2022/11/19 09:55:52;;;;;;;22.27;13.73;;;;;;;1.32;77.06;101211.53;5023979;28;20041;-72
2022/11/19 09:58:35;;;;;;;23.10;15.18;;;;;;;1.28;76.48;101209.75;5031755;28;20064;-71
2022/11/19 10:01:02;;;;;;;19.08;12.85;;;;;;;1.25;76.14;101215.78;5026430;28;20050;-72
2022/11/19 10:03:31;;;;;;;22.33;14.55;;;;;;;1.24;76.24;101221.81;5031830;28;20042;-71
2022/11/19 10:06:29;;;;;;;19.83;13.80;;;;;;;1.24;76.77;101227.91;5029633;28;20055;-72
2022/11/19 10:09:41;;;;;;;17.95;12.73;;;;;;;1.31;75.46;101218.47;5032473;28;20042;-71
2022/11/19 10:12:50;;;;;;;21.17;14.00;;;;;;;1.20;75.74;101222.66;5032369;28;20096;-72
2022/11/19 10:15:30;;;;;;;19.98;14.77;;;;;;;1.18;76.58;101229.53;5029809;28;20041;-72
2022/11/19 10:18:19;;;;;;;20.83;13.30;;;;;;;1.21;76.38;101230.44;5031598;28;20153;-71
2022/11/19 10:20:55;;;;;;;18.63;13.13;;;;;;;1.21;76.87;101240.84;5029811;28;20472;-71
2022/11/19 10:23:34;;;;;;;19.13;13.48;;;;;;;1.30;76.48;101240.13;5033123;28;20052;-71
2022/11/19 10:26:10;;;;;;;19.90;12.23;;;;;;;1.32;75.91;101234.94;5029622;28;20040;-71
2022/11/19 10:28:56;;;;;;;20.13;13.10;;;;;;;1.33;75.87;101236.69;5034149;28;20034;-71
2022/11/19 10:31:37;;;;;;;19.20;12.70;;;;;;;1.34;75.84;101239.28;5026253;28;20046;-71
2022/11/19 10:34:25;;;;;;;17.90;12.25;;;;;;;1.34;75.72;101228.03;5028560;28;20042;-71
2022/11/19 10:37:06;;;;;;;19.65;12.55;;;;;;;1.36;76.80;101232.41;5027313;28;20112;-71
2022/11/19 10:39:59;;;;;;;17.02;13.02;;;;;;;1.44;76.69;101232.50;5034085;28;20206;-72
2022/11/19 10:42:39;;;;;;;16.83;11.23;;;;;;;1.56;74.97;101231.78;5033994;28;20581;-72
2022/11/19 10:45:22;;;;;;;16.02;11.30;;;;;;;1.57;73.81;101224.88;5029124;28;20093;-72
2022/11/19 10:48:17;;;;;;;18.42;12.07;;;;;;;1.51;74.49;101220.47;5026726;28;20066;-72
2022/11/19 10:50:47;;;;;;;15.98;11.65;;;;;;;1.53;74.56;101223.94;5028605;28;20479;-71
2022/11/19 10:53:15;;;;;;;16.65;11.75;;;;;;;1.59;74.12;101221.44;5028705;28;20051;-72
2022/11/19 10:55:50;;;;;;;15.85;11.30;;;;;;;1.74;72.32;101212.97;5030453;28;20116;-71
2022/11/19 10:58:44;;;;;;;16.27;11.55;;;;;;;1.67;73.47;101217.22;5025450;28;20141;-71
2022/11/19 11:01:27;;;;;;;17.98;11.05;;;;;;;1.73;73.48;101216.41;5013019;28;20038;-71
2022/11/19 11:04:12;;;;;;;15.35;11.07;;;;;;;1.80;72.93;101210.41;5032908;28;20037;-71
2022/11/19 11:06:57;;;;;;;16.05;11.40;;;;;;;1.86;73.18;101215.72;5032931;28;20049;-70
2022/11/19 11:09:41;;;;;;;17.90;11.43;;;;;;;1.93;73.76;101218.38;5030804;28;20495;-70
2022/11/19 11:15:20;;;;;;;18.83;11.27;;;;;;;2.13;72.78;101221.22;5024762;28;20057;-72
2022/11/19 11:18:01;;;;;;;18.55;12.18;;;;;;;2.09;72.40;101214.22;5029008;28;20069;-72
2022/11/19 11:20:30;;;;;;;16.08;10.95;;;;;;;2.14;72.37;101212.53;5027161;28;20045;-72
2022/11/19 11:23:19;;;;;;;16.13;11.18;;;;;;;2.13;73.27;101223.81;5036828;28;20038;-72
2022/11/19 11:26:16;;;;;;;16.30;10.95;;;;;;;2.25;72.38;101212.66;5027782;28;20156;-72
2022/11/19 11:28:57;;;;;;;14.32;10.10;;;;;;;2.30;71.53;101200.53;5004233;28;20188;-72
2022/11/19 11:31:46;;;;;;;14.77;10.32;;;;;;;2.34;71.89;101202.31;5027543;28;20052;-72
2022/11/19 11:34:37;;;;;;;14.60;10.23;;;;;;;2.45;71.13;101211.09;5020818;28;20046;-72
2022/11/19 11:37:10;;;;;;;15.23;9.93;;;;;;;2.57;70.37;101212.94;5025500;28;20530;-72
2022/11/19 11:39:43;;;;;;;14.88;10.27;;;;;;;2.54;71.47;101212.94;5030387;28;20112;-73
2022/11/19 11:42:18;;;;;;;13.98;10.23;;;;;;;2.66;72.35;101213.88;5028730;28;20050;-73
2022/11/19 11:44:55;;;;;;;14.18;10.15;;;;;;;2.80;71.55;101209.66;5033370;28;20565;-72
2022/11/19 11:47:38;;;;;;;14.18;9.60;;;;;;;2.95;69.14;101206.28;5023658;28;20055;-72
2022/11/19 11:50:13;;;;;;;13.30;9.82;;;;;;;2.90;69.82;101197.59;5026686;28;20081;-72
2022/11/19 11:52:50;;;;;;;14.90;10.38;;;;;;;2.92;68.65;101201.94;5028393;28;20104;-72
2022/11/19 11:55:23;;;;;;;13.88;9.48;;;;;;;2.89;68.89;101193.25;5026779;28;20041;-74
2022/11/19 11:58:22;;;;;;;13.90;9.57;;;;;;;2.85;69.79;101199.28;5010181;28;20037;-75
2022/11/19 12:00:54;;;;;;;13.55;9.85;;;;;;;2.85;69.24;101192.31;5025210;28;20538;-74
2022/11/19 12:03:22;;;;;;;13.95;9.45;;;;;;;2.84;69.07;101182.78;5028061;28;20538;-74
2022/11/19 12:06:14;;;;;;;14.02;9.20;;;;;;;2.80;68.80;101186.22;5030323;28;20045;-73
2022/11/19 12:09:12;;;;;;;13.65;10.55;;;;;;;2.77;69.98;101186.19;5025875;28;20050;-72
2022/11/19 12:12:29;;;;;;;12.45;9.68;;;;;;;2.79;70.45;101187.97;5029401;28;20041;-71